Time;durP1;ratioP1;P1;durP2;ratioP2;P2;SDS_P1;SDS_P2;PMS_P1;PMS_P2;Temp;Humidity;BMP_temperature;BMP_pressure;BME280_temperature;BME280_humidity;BME280_pressure;Samples;Min_cycle;Max_cycle;Signal;HPM_P1;HPM_P2
2023/08/28 00:00:48;;;;;;;1.35;1.25;;;20.00;99.90;;;;;;5078222;28;20029;-68
2023/08/28 00:03:14;;;;;;;1.75;1.42;;;20.00;99.90;;;;;;5096602;28;20024;-68
2023/08/28 00:05:40;;;;;;;1.10;0.85;;;20.00;99.90;;;;;;5096671;28;20063;-67
2023/08/28 00:08:06;;;;;;;1.63;1.10;;;20.00;99.90;;;;;;5077642;28;20059;-67
2023/08/28 00:10:32;;;;;;;2.78;0.98;;;20.00;99.90;;;;;;5096311;28;20046;-68
2023/08/28 00:12:58;;;;;;;3.53;1.73;;;19.90;99.90;;;;;;5096410;28;20024;-67
2023/08/28 00:15:24;;;;;;;1.75;1.15;;;19.90;99.90;;;;;;5098301;28;20028;-68
2023/08/28 00:17:49;;;;;;;2.85;1.20;;;20.00;99.90;;;;;;5098264;28;20052;-68
2023/08/28 00:20:16;;;;;;;1.58;1.10;;;20.00;99.90;;;;;;5096559;28;20032;-68
2023/08/28 00:22:42;;;;;;;1.30;1.00;;;20.00;99.90;;;;;;5096488;28;20532;-68
2023/08/28 00:25:08;;;;;;;2.35;1.10;;;19.90;99.90;;;;;;5080400;28;20062;-68
2023/08/28 00:27:33;;;;;;;3.28;1.00;;;19.90;99.90;;;;;;5096983;28;20100;-68
2023/08/28 00:30:00;;;;;;;3.55;1.00;;;19.90;99.90;;;;;;5096981;28;20470;-68
2023/08/28 00:32:26;;;;;;;1.38;1.10;;;19.90;99.90;;;;;;5096376;28;20028;-68
2023/08/28 00:34:52;;;;;;;1.10;1.00;;;19.90;99.90;;;;;;5097066;28;20112;-68
2023/08/28 00:37:18;;;;;;;1.10;1.00;;;19.90;99.90;;;;;;5096108;28;20024;-68
2023/08/28 00:39:43;;;;;;;2.25;1.00;;;19.90;99.90;;;;;;5077146;28;20043;-68
2023/08/28 00:42:09;;;;;;;1.02;1.00;;;19.90;99.90;;;;;;5094944;28;20439;-68
2023/08/28 00:44:35;;;;;;;2.33;1.08;;;19.90;99.90;;;;;;5095094;28;20032;-67
2023/08/28 00:47:02;;;;;;;1.70;1.15;;;19.90;99.90;;;;;;5095088;28;20465;-68
2023/08/28 00:49:29;;;;;;;1.02;0.80;;;19.90;99.90;;;;;;5095207;28;20048;-67
2023/08/28 00:51:55;;;;;;;1.95;0.88;;;19.90;99.90;;;;;;5095358;28;20069;-68
2023/08/28 00:54:21;;;;;;;2.35;1.13;;;19.90;99.90;;;;;;5095027;28;20107;-67
2023/08/28 00:56:48;;;;;;;1.15;0.90;;;19.80;99.90;;;;;;5094964;28;20099;-68
2023/08/28 00:59:15;;;;;;;0.90;0.82;;;19.70;99.90;;;;;;5077254;28;20035;-68
2023/08/28 01:01:42;;;;;;;1.77;1.42;;;19.70;99.90;;;;;;5077434;28;20058;-67
2023/08/28 01:04:07;;;;;;;2.60;1.10;;;19.70;99.90;;;;;;5094992;28;20046;-68
2023/08/28 01:07:00;;;;;;;2.72;1.00;;;19.70;99.90;;;;;;5076812;28;20513;-68
2023/08/28 01:09:35;;;;;;;0.65;0.63;;;19.70;99.90;;;;;;5094420;28;20047;-68
2023/08/28 01:12:07;;;;;;;5.20;1.30;;;19.70;99.90;;;;;;5094204;28;20112;-68
2023/08/28 01:14:49;;;;;;;1.92;0.98;;;19.60;99.90;;;;;;5094698;28;20099;-68
2023/08/28 01:17:17;;;;;;;1.15;0.70;;;19.60;99.90;;;;;;5076594;28;20385;-68
2023/08/28 01:19:44;;;;;;;3.15;1.00;;;19.60;99.90;;;;;;5076590;28;20067;-67
2023/08/28 01:22:43;;;;;;;6.60;1.00;;;19.60;99.90;;;;;;5076373;28;20028;-68
2023/08/28 01:25:10;;;;;;;1.50;1.02;;;19.60;99.90;;;;;;5076312;28;20030;-68
2023/08/28 01:27:40;;;;;;;3.15;0.80;;;19.60;99.90;;;;;;5094305;28;20026;-68
2023/08/28 01:30:08;;;;;;;1.13;1.02;;;19.60;99.90;;;;;;5076101;28;20027;-68
2023/08/28 01:32:33;;;;;;;2.05;1.10;;;19.60;99.90;;;;;;5093992;28;20043;-68
2023/08/28 01:35:01;;;;;;;1.23;0.80;;;19.50;99.90;;;;;;5094032;28;20024;-68
2023/08/28 01:37:32;;;;;;;0.98;0.70;;;19.60;99.90;;;;;;5094233;28;20053;-68
2023/08/28 01:40:01;;;;;;;1.08;0.80;;;19.50;99.90;;;;;;5094207;28;20063;-68
2023/08/28 01:42:28;;;;;;;3.72;2.35;;;19.60;99.90;;;;;;5094067;28;20020;-68
2023/08/28 01:44:55;;;;;;;1.40;0.90;;;19.60;99.90;;;;;;5076004;28;20028;-68
2023/08/28 01:47:24;;;;;;;1.55;0.70;;;19.50;99.90;;;;;;5094070;28;20031;-68
2023/08/28 01:49:53;;;;;;;1.52;1.17;;;19.50;99.90;;;;;;5075820;28;20068;-68
2023/08/28 01:52:20;;;;;;;;;;;19.50;99.90;;;;;;5077229;28;20028;-68
2023/08/28 01:54:46;;;;;;;6.40;0.70;;;19.50;99.90;;;;;;5094181;28;19904;-68
2023/08/28 01:57:11;;;;;;;1.90;0.77;;;19.40;99.90;;;;;;5093625;28;20039;-68
2023/08/28 01:59:37;;;;;;;0.77;0.77;;;19.40;99.90;;;;;;5094039;28;20031;-68
2023/08/28 02:02:03;;;;;;;3.10;0.77;;;19.40;99.90;;;;;;5094184;28;20020;-68
2023/08/28 02:04:28;;;;;;;1.13;0.90;;;19.40;99.90;;;;;;5093964;28;20077;-68
2023/08/28 02:06:54;;;;;;;1.67;0.90;;;19.30;99.90;;;;;;5093861;28;20031;-67
2023/08/28 02:09:19;;;;;;;0.70;0.70;;;19.40;99.90;;;;;;5093988;28;20023;-69
2023/08/28 02:11:45;;;;;;;1.98;0.50;;;19.40;99.90;;;;;;5094226;28;20522;-68
2023/08/28 02:14:11;;;;;;;0.70;0.50;;;19.40;99.90;;;;;;5077876;28;20073;-68
2023/08/28 02:16:38;;;;;;;2.83;0.75;;;19.30;99.90;;;;;;5099504;28;20032;-69
2023/08/28 02:19:04;;;;;;;2.33;0.52;;;19.30;99.90;;;;;;5101462;28;20407;-68
2023/08/28 02:21:30;;;;;;;2.08;0.68;;;19.30;99.90;;;;;;5100626;28;20469;-68
2023/08/28 02:23:55;;;;;;;1.15;0.52;;;19.30;99.90;;;;;;5100630;28;20146;-68
2023/08/28 02:26:21;;;;;;;1.17;0.50;;;19.30;99.90;;;;;;5099892;28;20076;-68
2023/08/28 02:28:47;;;;;;;4.18;1.30;;;19.30;99.90;;;;;;5080071;28;20063;-68
2023/08/28 02:31:12;;;;;;;1.17;0.70;;;19.30;99.90;;;;;;5079636;28;20113;-68
2023/08/28 02:33:38;;;;;;;1.10;0.55;;;19.30;99.90;;;;;;5097509;28;20165;-68
2023/08/28 02:36:04;;;;;;;2.03;0.70;;;19.30;99.90;;;;;;5079310;28;20035;-67
2023/08/28 02:38:29;;;;;;;1.42;0.85;;;19.30;99.90;;;;;;5079970;28;20027;-68
2023/08/28 02:41:03;;;;;;;4.68;0.60;;;19.30;99.90;;;;;;5079448;28;20042;-68
2023/08/28 02:43:29;;;;;;;2.20;0.40;;;19.20;99.90;;;;;;5097610;28;20101;-68
2023/08/28 02:45:54;;;;;;;1.05;0.50;;;19.30;99.90;;;;;;5079288;28;20060;-68
2023/08/28 02:48:20;;;;;;;0.88;0.57;;;19.20;99.90;;;;;;5097388;28;20450;-68
2023/08/28 02:50:49;;;;;;;2.22;0.60;;;19.20;99.90;;;;;;5078821;28;20040;-67
2023/08/28 02:53:15;;;;;;;;;;;19.30;99.90;;;;;;5097648;28;20016;-67
2023/08/28 02:55:41;;;;;;;1.00;0.60;;;19.20;99.90;;;;;;5097570;28;19957;-68
2023/08/28 02:58:07;;;;;;;1.48;0.40;;;19.20;99.90;;;;;;5079086;28;20032;-68
2023/08/28 03:00:35;;;;;;;1.20;0.52;;;19.10;99.90;;;;;;5097110;28;20066;-67
2023/08/28 03:03:01;;;;;;;0.75;0.45;;;19.10;99.90;;;;;;5097062;28;20028;-67
2023/08/28 03:05:27;;;;;;;0.60;0.60;;;19.10;99.90;;;;;;5078887;28;20024;-67
2023/08/28 03:07:53;;;;;;;2.20;0.80;;;19.00;99.90;;;;;;5097071;28;20031;-67
2023/08/28 03:10:18;;;;;;;1.85;0.70;;;19.00;99.90;;;;;;5096959;28;20384;-68
2023/08/28 03:12:44;;;;;;;1.38;0.38;;;19.00;99.90;;;;;;5078845;28;20032;-67
2023/08/28 03:15:10;;;;;;;1.52;0.75;;;19.00;99.90;;;;;;5095623;28;20112;-68
2023/08/28 03:17:35;;;;;;;3.22;0.88;;;19.00;99.90;;;;;;5096537;28;20038;-67
2023/08/28 03:20:01;;;;;;;0.75;0.50;;;19.00;99.90;;;;;;5078450;28;20537;-68
2023/08/28 03:22:26;;;;;;;2.22;0.70;;;19.00;99.90;;;;;;5096380;28;20028;-67
2023/08/28 03:24:52;;;;;;;2.08;0.57;;;18.90;99.90;;;;;;5078898;28;20028;-68
2023/08/28 03:27:20;;;;;;;1.30;1.23;;;18.90;99.90;;;;;;5078562;28;20377;-68
2023/08/28 03:29:45;;;;;;;1.05;0.50;;;18.90;99.90;;;;;;5096616;28;20089;-68
2023/08/28 03:32:11;;;;;;;1.38;0.98;;;19.00;99.90;;;;;;5096837;28;20465;-67
2023/08/28 03:34:36;;;;;;;1.80;0.80;;;18.90;99.90;;;;;;5096115;28;20385;-68
2023/08/28 03:37:02;;;;;;;2.65;1.40;;;18.90;99.90;;;;;;5078203;28;20032;-68
2023/08/28 03:39:28;;;;;;;2.92;2.08;;;18.90;99.90;;;;;;5095941;28;20031;-68
2023/08/28 03:41:53;;;;;;;2.80;1.20;;;18.80;99.90;;;;;;5078176;28;20024;-68
2023/08/28 03:44:19;;;;;;;1.75;1.40;;;18.90;99.90;;;;;;5096106;28;20028;-68
2023/08/28 03:46:45;;;;;;;1.55;1.15;;;18.80;99.90;;;;;;5078292;28;20503;-68
2023/08/28 03:49:11;;;;;;;2.45;1.45;;;18.80;99.90;;;;;;5077911;28;20016;-68
2023/08/28 03:51:36;;;;;;;0.60;0.57;;;18.80;99.90;;;;;;5096238;28;20052;-62
2023/08/28 03:54:02;;;;;;;1.58;1.10;;;18.80;99.90;;;;;;5096076;28;20028;-62
2023/08/28 03:56:29;;;;;;;1.50;0.85;;;18.80;99.90;;;;;;5095980;28;20355;-63
2023/08/28 03:58:55;;;;;;;1.45;0.70;;;18.80;99.90;;;;;;5094724;28;20024;-62
2023/08/28 04:01:21;;;;;;;2.05;0.95;;;18.80;99.90;;;;;;5096027;28;20055;-62
2023/08/28 04:03:47;;;;;;;1.23;0.90;;;18.80;99.90;;;;;;5077730;28;20024;-62
2023/08/28 04:06:12;;;;;;;2.03;1.13;;;18.80;99.90;;;;;;5095680;28;20492;-62
2023/08/28 04:08:38;;;;;;;0.85;0.85;;;18.80;99.90;;;;;;5095540;28;20028;-62
2023/08/28 04:11:04;;;;;;;2.58;0.90;;;18.80;99.90;;;;;;5095573;28;20034;-62
2023/08/28 04:13:29;;;;;;;3.15;0.93;;;18.80;99.90;;;;;;5095663;28;20422;-62
2023/08/28 04:15:56;;;;;;;1.92;0.80;;;18.80;99.90;;;;;;5095235;28;20047;-63
2023/08/28 04:18:21;;;;;;;1.58;0.60;;;18.80;99.90;;;;;;5095215;28;20422;-63
2023/08/28 04:20:47;;;;;;;2.00;0.55;;;18.80;99.90;;;;;;5094073;28;20058;-63
2023/08/28 04:23:13;;;;;;;1.65;0.75;;;18.80;99.90;;;;;;5077237;28;20119;-63
2023/08/28 04:25:38;;;;;;;3.72;0.60;;;18.90;99.90;;;;;;5095898;28;20020;-60
2023/08/28 04:28:04;;;;;;;0.57;0.57;;;18.90;99.90;;;;;;5077365;28;20027;-60
2023/08/28 04:30:30;;;;;;;0.60;0.60;;;18.80;99.90;;;;;;5095108;28;20437;-61
2023/08/28 04:32:55;;;;;;;1.05;0.70;;;18.90;99.90;;;;;;5093998;28;20020;-61
2023/08/28 04:35:21;;;;;;;0.50;0.50;;;18.90;99.90;;;;;;5094892;28;20146;-60
2023/08/28 04:37:48;;;;;;;0.77;0.60;;;18.80;99.90;;;;;;5095188;28;20157;-60
2023/08/28 04:40:14;;;;;;;2.85;0.60;;;18.90;99.90;;;;;;5094212;28;20499;-60
2023/08/28 04:42:39;;;;;;;0.77;0.68;;;18.80;99.90;;;;;;5094747;28;20020;-60
2023/08/28 04:45:05;;;;;;;1.90;0.70;;;18.80;99.90;;;;;;5095245;28;20465;-60
2023/08/28 04:47:31;;;;;;;1.92;0.50;;;18.80;99.90;;;;;;5095508;28;20074;-61
2023/08/28 04:49:56;;;;;;;0.63;0.43;;;18.70;99.90;;;;;;5093743;28;20062;-70
2023/08/28 04:52:22;;;;;;;1.17;0.40;;;18.70;99.90;;;;;;5094971;28;20107;-68
2023/08/28 04:54:48;;;;;;;1.52;0.60;;;18.60;99.90;;;;;;5093386;28;20131;-69
2023/08/28 04:57:13;;;;;;;1.38;0.40;;;18.50;99.90;;;;;;5094696;28;20030;-69
2023/08/28 04:59:39;;;;;;;0.85;0.40;;;18.50;99.90;;;;;;5094670;28;20051;-69
2023/08/28 05:02:05;;;;;;;0.65;0.30;;;18.50;99.90;;;;;;5093480;28;20377;-69
2023/08/28 05:04:30;;;;;;;1.88;0.50;;;18.40;99.90;;;;;;5093422;28;20032;-69
2023/08/28 05:06:56;;;;;;;1.23;0.50;;;18.30;99.90;;;;;;5093322;28;20060;-69
2023/08/28 05:09:22;;;;;;;2.53;0.68;;;18.30;99.90;;;;;;5094623;28;20032;-69
2023/08/28 05:11:48;;;;;;;2.05;0.50;;;;;;;;;;5093198;28;20032;-68
2023/08/28 05:14:13;;;;;;;1.75;0.38;;;18.30;99.90;;;;;;5093125;28;20027;-69
2023/08/28 05:16:39;;;;;;;0.40;0.32;;;18.30;99.90;;;;;;5094732;28;20402;-69
2023/08/28 05:19:05;;;;;;;0.32;0.32;;;18.40;99.90;;;;;;5094567;28;20365;-68
2023/08/28 05:21:30;;;;;;;1.45;0.50;;;18.50;99.90;;;;;;5093791;28;20036;-69
2023/08/28 05:23:56;;;;;;;1.15;0.30;;;18.50;99.90;;;;;;5093053;28;20466;-68
2023/08/28 05:26:22;;;;;;;0.80;0.40;;;18.50;99.90;;;;;;5094566;28;20459;-69
2023/08/28 05:28:47;;;;;;;2.28;0.40;;;18.50;99.90;;;;;;5094357;28;20089;-69
2023/08/28 05:31:13;;;;;;;2.25;0.60;;;18.50;99.90;;;;;;5094457;28;20040;-69
2023/08/28 05:33:38;;;;;;;0.40;0.40;;;18.50;99.90;;;;;;5094434;28;20055;-70
2023/08/28 05:36:04;;;;;;;0.35;0.35;;;18.60;99.90;;;;;;5094095;28;20058;-68
2023/08/28 05:38:30;;;;;;;1.55;0.50;;;18.60;99.90;;;;;;5094010;28;20024;-61
2023/08/28 05:40:56;;;;;;;2.45;0.50;;;18.70;99.90;;;;;;5092706;28;20032;-62
2023/08/28 05:43:21;;;;;;;2.38;0.57;;;18.80;99.90;;;;;;5092704;28;20020;-61
2023/08/28 05:45:47;;;;;;;1.23;0.50;;;18.90;99.90;;;;;;5092824;28;20093;-62
2023/08/28 05:48:13;;;;;;;2.72;0.57;;;19.00;99.90;;;;;;5094201;28;20150;-61
2023/08/28 05:50:39;;;;;;;2.03;0.40;;;19.00;99.90;;;;;;5092422;28;20528;-62
2023/08/28 05:53:06;;;;;;;2.55;0.60;;;19.00;99.90;;;;;;5095883;28;20030;-62
2023/08/28 05:55:32;;;;;;;0.70;0.40;;;19.00;99.90;;;;;;5095383;28;20024;-66
2023/08/28 05:57:58;;;;;;;0.63;0.40;;;19.00;99.90;;;;;;5093957;28;20426;-61
2023/08/28 06:00:25;;;;;;;0.77;0.40;;;19.10;99.90;;;;;;5093823;28;20461;-62
2023/08/28 06:02:51;;;;;;;2.15;0.65;;;19.20;99.90;;;;;;5092361;28;20433;-60
2023/08/28 06:05:17;;;;;;;2.42;0.55;;;19.30;99.90;;;;;;5093733;28;20055;-61
2023/08/28 06:07:43;;;;;;;1.10;0.40;;;19.30;99.90;;;;;;5093933;28;20078;-61
2023/08/28 06:10:11;;;;;;;0.80;0.60;;;19.40;99.90;;;;;;5092342;28;20032;-61
2023/08/28 06:12:37;;;;;;;1.77;0.57;;;19.50;99.90;;;;;;5094278;28;20024;-61
2023/08/28 06:15:02;;;;;;;2.85;0.50;;;19.60;99.90;;;;;;5093678;28;20035;-61
2023/08/28 06:17:28;;;;;;;1.77;0.80;;;19.60;99.90;;;;;;5092279;28;20028;-72
2023/08/28 06:19:54;;;;;;;0.88;0.38;;;19.60;99.90;;;;;;5093221;28;20389;-58
2023/08/28 06:22:19;;;;;;;4.10;0.73;;;19.60;99.90;;;;;;5093539;28;20059;-59
2023/08/28 06:24:50;;;;;;;2.35;0.60;;;19.60;99.90;;;;;;5093564;28;20106;-59
2023/08/28 06:27:15;;;;;;;2.83;0.63;;;19.70;99.90;;;;;;5092388;28;20415;-58
2023/08/28 06:29:41;;;;;;;1.67;0.60;;;19.80;99.90;;;;;;5093255;28;20028;-59
2023/08/28 06:32:07;;;;;;;1.08;0.50;;;19.90;99.90;;;;;;5092387;28;20024;-59
2023/08/28 06:34:32;;;;;;;1.92;0.50;;;20.00;99.90;;;;;;5092196;28;20031;-59
2023/08/28 06:36:58;;;;;;;1.35;0.60;;;20.10;99.90;;;;;;5092237;28;20061;-59
2023/08/28 06:39:23;;;;;;;2.38;0.90;;;20.10;99.90;;;;;;5092035;28;20373;-58
2023/08/28 06:41:49;;;;;;;0.90;0.60;;;20.10;99.90;;;;;;5091862;28;20024;-58
2023/08/28 06:44:14;;;;;;;0.57;0.57;;;20.10;99.90;;;;;;5092131;28;20027;-58
2023/08/28 06:46:40;;;;;;;5.10;0.80;;;20.00;99.90;;;;;;5092110;28;20381;-58
2023/08/28 06:49:06;;;;;;;2.78;0.60;;;20.00;99.90;;;;;;5093048;28;20028;-59
2023/08/28 06:51:31;;;;;;;1.40;0.50;;;20.00;99.90;;;;;;5093466;28;20497;-59
2023/08/28 06:53:57;;;;;;;1.83;0.50;;;20.10;99.90;;;;;;5093104;28;20024;-59
2023/08/28 06:56:23;;;;;;;2.10;0.40;;;20.10;99.90;;;;;;5092819;28;20020;-59
2023/08/28 06:58:48;;;;;;;0.90;0.70;;;20.10;99.90;;;;;;5091737;28;20024;-58
2023/08/28 07:01:14;;;;;;;0.63;0.60;;;20.00;99.90;;;;;;5092738;28;20032;-66
2023/08/28 07:03:40;;;;;;;0.60;0.50;;;20.10;99.90;;;;;;5096075;28;20031;-66
2023/08/28 07:06:05;;;;;;;1.55;0.60;;;19.80;99.90;;;;;;5096796;28;20028;-68
2023/08/28 07:08:31;;;;;;;0.90;0.70;;;19.70;99.90;;;;;;5095479;28;20057;-66
2023/08/28 07:10:57;;;;;;;1.70;0.70;;;19.60;99.90;;;;;;5096567;28;20036;-66
2023/08/28 07:13:22;;;;;;;2.13;0.80;;;19.70;99.90;;;;;;5096438;28;20107;-66
2023/08/28 07:15:48;;;;;;;1.45;1.10;;;19.70;99.90;;;;;;5096397;28;20027;-66
2023/08/28 07:18:13;;;;;;;1.67;0.73;;;19.90;99.90;;;;;;5096437;28;20026;-66
2023/08/28 07:20:39;;;;;;;2.58;0.95;;;19.90;99.90;;;;;;5096283;28;20088;-67
2023/08/28 07:23:05;;;;;;;3.53;0.52;;;20.20;99.90;;;;;;5096695;28;20105;-67
2023/08/28 07:25:31;;;;;;;1.42;0.80;;;20.30;99.90;;;;;;5097298;28;20031;-66
2023/08/28 07:27:57;;;;;;;1.70;1.00;;;20.30;99.90;;;;;;5095187;28;20024;-66
2023/08/28 07:30:22;;;;;;;1.08;0.80;;;20.10;99.90;;;;;;5096612;28;20099;-66
2023/08/28 07:32:48;;;;;;;2.53;0.85;;;20.20;99.90;;;;;;5096898;28;20118;-66
2023/08/28 07:35:14;;;;;;;2.92;0.80;;;20.20;99.90;;;;;;5094926;28;20114;-66
2023/08/28 07:37:40;;;;;;;1.33;1.00;;;20.20;99.90;;;;;;5096453;28;20534;-67
2023/08/28 07:40:06;;;;;;;1.83;1.10;;;20.20;99.90;;;;;;5094922;28;20032;-66
2023/08/28 07:42:36;;;;;;;2.58;1.02;;;20.10;99.90;;;;;;5094861;28;20024;-66
2023/08/28 07:45:02;;;;;;;4.55;1.40;;;20.10;99.90;;;;;;5096418;28;20346;-66
2023/08/28 07:47:28;;;;;;;2.38;0.90;;;20.10;99.90;;;;;;5094972;28;20021;-66
2023/08/28 07:49:54;;;;;;;2.42;1.23;;;20.00;99.90;;;;;;5095974;28;20052;-66
2023/08/28 07:52:20;;;;;;;2.97;1.23;;;20.00;99.90;;;;;;5095746;28;20108;-66
2023/08/28 07:54:47;;;;;;;1.95;1.08;;;20.00;99.90;;;;;;5095655;28;20062;-66
2023/08/28 07:57:12;;;;;;;1.88;1.05;;;20.20;99.90;;;;;;5096025;28;20028;-66
2023/08/28 07:59:39;;;;;;;2.42;1.30;;;20.40;99.90;;;;;;5096116;28;20386;-66
2023/08/28 08:02:04;;;;;;;2.30;1.02;;;20.50;99.90;;;;;;5095907;28;20103;-66
2023/08/28 08:04:31;;;;;;;1.38;0.90;;;20.70;99.90;;;;;;5096086;28;20103;-66
2023/08/28 08:06:56;;;;;;;1.30;1.20;;;20.60;99.90;;;;;;5095796;28;20020;-66
2023/08/28 08:09:23;;;;;;;2.50;1.20;;;20.70;99.90;;;;;;5094412;28;20115;-67
2023/08/28 08:11:48;;;;;;;2.47;1.20;;;20.90;99.90;;;;;;5095135;28;20370;-66
2023/08/28 08:14:14;;;;;;;2.00;1.10;;;21.30;99.90;;;;;;5094827;28;20552;-66
2023/08/28 08:16:40;;;;;;;1.55;1.40;;;21.20;99.90;;;;;;5094297;28;20031;-66
2023/08/28 08:19:05;;;;;;;1.35;1.25;;;21.10;99.90;;;;;;5095210;28;20030;-66
2023/08/28 08:21:31;;;;;;;1.50;1.40;;;20.80;99.90;;;;;;5095663;28;20392;-67
2023/08/28 08:23:57;;;;;;;6.53;1.27;;;20.80;99.90;;;;;;5095776;28;20069;-66
2023/08/28 08:26:22;;;;;;;1.55;1.45;;;21.00;99.90;;;;;;5094337;28;20032;-66
2023/08/28 08:28:48;;;;;;;2.33;1.20;;;21.20;99.90;;;;;;5095592;28;20028;-66
2023/08/28 08:31:14;;;;;;;4.35;1.58;;;21.40;99.90;;;;;;5095011;28;20066;-66
2023/08/28 08:33:40;;;;;;;2.58;1.60;;;21.40;99.90;;;;;;5094932;28;20052;-66
2023/08/28 08:36:06;;;;;;;2.25;1.83;;;21.30;99.90;;;;;;5094923;28;20484;-66
2023/08/28 08:38:32;;;;;;;2.83;1.63;;;21.30;99.90;;;;;;5094767;28;20035;-67
2023/08/28 08:40:58;;;;;;;1.63;1.52;;;21.20;99.90;;;;;;5095115;28;20036;-66
2023/08/28 08:43:27;;;;;;;1.48;1.38;;;21.40;99.90;;;;;;5095064;28;20059;-66
2023/08/28 08:46:03;;;;;;;1.38;1.27;;;21.50;99.90;;;;;;5095229;28;20063;-66
2023/08/28 08:48:31;;;;;;;1.90;1.30;;;21.80;99.90;;;;;;5095238;28;20024;-67
2023/08/28 08:51:05;;;;;;;1.58;1.35;;;22.20;99.90;;;;;;5094828;28;20097;-67
2023/08/28 08:53:48;;;;;;;1.63;1.52;;;22.50;99.90;;;;;;5096138;28;20032;-66
2023/08/28 08:56:17;;;;;;;2.28;1.45;;;22.40;99.90;;;;;;5095350;28;20012;-67
2023/08/28 08:58:43;;;;;;;2.25;2.10;;;22.20;99.90;;;;;;5095550;28;20067;-72
2023/08/28 09:01:10;;;;;;;3.80;1.77;;;22.20;99.90;;;;;;5100463;28;20089;-68
2023/08/28 09:03:38;;;;;;;4.82;1.90;;;22.10;99.90;;;;;;5099911;28;20038;-67
2023/08/28 09:06:06;;;;;;;2.78;2.08;;;21.80;99.90;;;;;;5097660;28;20031;-70
2023/08/28 09:08:34;;;;;;;2.85;2.00;;;21.60;99.90;;;;;;5099578;28;20039;-67
2023/08/28 09:11:00;;;;;;;2.20;1.97;;;21.50;99.90;;;;;;5097873;28;20039;-66
2023/08/28 09:13:27;;;;;;;2.38;1.45;;;21.20;99.90;;;;;;5097739;28;20024;-67
2023/08/28 09:15:52;;;;;;;3.35;1.73;;;21.30;99.90;;;;;;5096026;28;20063;-67
2023/08/28 09:18:19;;;;;;;2.97;1.90;;;21.30;99.90;;;;;;5095082;28;20112;-67
2023/08/28 09:21:08;;;;;;;2.17;1.98;;;21.30;99.90;;;;;;5094267;28;20028;-67
2023/08/28 09:23:40;;;;;;;3.97;2.15;;;21.30;99.90;;;;;;5094343;28;20028;-66
2023/08/28 09:26:05;;;;;;;2.28;2.08;;;21.20;99.90;;;;;;5094214;28;20028;-67
2023/08/28 09:28:31;;;;;;;1.95;1.83;;;21.20;99.90;;;;;;5094858;28;20465;-67
2023/08/28 09:30:57;;;;;;;4.20;1.73;;;21.20;99.90;;;;;;5094473;28;20024;-66
2023/08/28 09:33:22;;;;;;;2.30;1.80;;;21.20;99.90;;;;;;5093493;28;20451;-66
2023/08/28 09:35:48;;;;;;;4.35;2.10;;;21.20;99.90;;;;;;5092575;28;20461;-66
2023/08/28 09:38:14;;;;;;;4.93;3.15;;;21.20;99.90;;;;;;5094123;28;20024;-67
2023/08/28 09:40:41;;;;;;;4.45;1.77;;;21.30;99.90;;;;;;5093674;28;20062;-66
2023/08/28 09:43:16;;;;;;;2.05;1.85;;;21.20;99.90;;;;;;5094347;28;20016;-66
2023/08/28 09:45:44;;;;;;;3.45;2.55;;;21.00;99.90;;;;;;5092430;28;20473;-66
2023/08/28 09:48:10;;;;;;;3.45;1.95;;;21.10;99.90;;;;;;5094048;28;20093;-66
2023/08/28 09:50:39;;;;;;;3.78;2.03;;;21.30;99.90;;;;;;5094218;28;20086;-66
2023/08/28 09:53:10;;;;;;;3.38;2.50;;;21.50;99.90;;;;;;5092718;28;20461;-66
2023/08/28 09:55:54;;;;;;;6.38;2.25;;;21.60;99.90;;;;;;5092708;28;20028;-66
2023/08/28 09:58:25;;;;;;;5.45;2.53;;;21.70;99.90;;;;;;5092744;28;20537;-66
2023/08/28 10:00:52;;;;;;;3.50;2.10;;;21.80;99.90;;;;;;5092688;28;20055;-66
2023/08/28 10:03:20;;;;;;;2.00;1.85;;;22.00;99.90;;;;;;5092387;28;20020;-66
2023/08/28 10:05:47;;;;;;;3.72;2.08;;;22.00;99.90;;;;;;5092572;28;20354;-66
2023/08/28 10:08:15;;;;;;;2.42;2.22;;;22.00;99.90;;;;;;5092298;28;20042;-66
2023/08/28 10:10:42;;;;;;;2.47;2.28;;;21.80;99.90;;;;;;5075449;28;20036;-66
2023/08/28 10:13:16;;;;;;;2.45;2.10;;;21.70;99.90;;;;;;5093955;28;20024;-67
2023/08/28 10:15:57;;;;;;;2.33;2.13;;;21.70;99.90;;;;;;5094099;28;20103;-66
2023/08/28 10:18:38;;;;;;;3.05;2.35;;;21.80;99.90;;;;;;5093871;28;20112;-66
2023/08/28 10:21:06;;;;;;;3.63;2.00;;;22.00;99.90;;;;;;5092767;28;20464;-67
2023/08/28 10:23:33;;;;;;;2.60;1.98;;;22.00;99.90;;;;;;5093850;28;20024;-66
2023/08/28 10:26:01;;;;;;;2.90;1.90;;;22.10;99.90;;;;;;5092439;28;20024;-66
2023/08/28 10:28:28;;;;;;;2.85;2.28;;;21.90;99.90;;;;;;5094251;28;20472;-66
2023/08/28 10:30:53;;;;;;;2.70;2.00;;;22.00;99.90;;;;;;5094589;28;20036;-66
2023/08/28 10:33:21;;;;;;;3.97;1.92;;;22.00;99.90;;;;;;5093115;28;20024;-67
2023/08/28 10:35:50;;;;;;;3.03;2.40;;;22.10;99.90;;;;;;5092762;28;20039;-67
2023/08/28 10:38:20;;;;;;;3.25;2.22;;;22.40;99.90;;;;;;5078800;28;20017;-67
2023/08/28 10:40:51;;;;;;;2.40;2.20;;;22.70;99.90;;;;;;5097701;28;20056;-67
2023/08/28 10:43:21;;;;;;;6.63;2.40;;;22.90;99.90;;;;;;5096802;28;20028;-67
2023/08/28 10:45:49;;;;;;;3.47;1.80;;;22.90;99.90;;;;;;5097519;28;20028;-67
2023/08/28 10:48:20;;;;;;;3.92;2.40;;;23.00;99.90;;;;;;5097560;28;20024;-67
2023/08/28 10:50:45;;;;;;;3.38;2.08;;;23.10;99.90;;;;;;5095829;28;20090;-67
2023/08/28 10:53:16;;;;;;;2.40;2.20;;;23.20;99.90;;;;;;5096182;28;20048;-68
2023/08/28 10:55:52;;;;;;;2.28;1.60;;;23.00;99.90;;;;;;5097464;28;20096;-69
2023/08/28 10:58:17;;;;;;;2.72;2.47;;;23.20;99.90;;;;;;5097596;28;20472;-68
2023/08/28 11:00:43;;;;;;;3.67;2.33;;;22.80;99.90;;;;;;5097665;28;20040;-67
2023/08/28 11:03:14;;;;;;;4.15;2.35;;;22.70;99.90;;;;;;5097508;28;20024;-67
2023/08/28 11:05:41;;;;;;;2.28;1.98;;;22.70;99.90;;;;;;5097615;28;20028;-67
2023/08/28 11:08:11;;;;;;;2.83;2.20;;;22.80;99.90;;;;;;5100203;28;20081;-67
2023/08/28 11:10:44;;;;;;;5.85;2.90;;;22.90;99.90;;;;;;5100236;28;20028;-67
2023/08/28 11:13:20;;;;;;;6.22;2.20;;;23.00;99.90;;;;;;5097515;28;20056;-67
2023/08/28 11:15:45;;;;;;;2.55;1.90;;;23.30;99.90;;;;;;5096119;28;20354;-67
2023/08/28 11:18:17;;;;;;;2.95;2.20;;;23.30;99.90;;;;;;5097238;28;20503;-66
2023/08/28 11:20:56;;;;;;;3.05;2.10;;;23.70;99.90;;;;;;5096792;28;20032;-68
2023/08/28 11:23:33;;;;;;;5.70;2.05;;;24.30;99.90;;;;;;5095343;28;20028;-68
2023/08/28 11:26:00;;;;;;;3.58;2.03;;;25.00;98.50;;;;;;5096519;28;20482;-68
2023/08/28 11:28:29;;;;;;;2.80;1.77;;;25.30;97.80;;;;;;5096818;28;20073;-67
2023/08/28 11:31:01;;;;;;;;;;;25.30;97.00;;;;;;5096024;28;20047;-67
2023/08/28 11:33:35;;;;;;;5.15;1.92;;;25.20;97.40;;;;;;5096074;28;19911;-71
2023/08/28 11:36:01;;;;;;;1.75;1.65;;;25.30;97.40;;;;;;5096547;28;20028;-62
2023/08/28 11:38:27;;;;;;;5.15;1.90;;;25.60;96.60;;;;;;5096681;28;20092;-62
2023/08/28 11:40:55;;;;;;;3.55;1.98;;;25.80;96.20;;;;;;5096108;28;20061;-67
2023/08/28 11:43:21;;;;;;;2.60;1.90;;;25.80;95.50;;;;;;5096908;28;20031;-67
2023/08/28 11:45:46;;;;;;;3.53;1.90;;;26.00;95.30;;;;;;5096970;28;20259;-67
2023/08/28 11:48:12;;;;;;;4.90;2.35;;;26.60;94.50;;;;;;5097072;28;20107;-72
2023/08/28 11:50:38;;;;;;;4.35;1.92;;;26.90;93.80;;;;;;5096243;28;20477;-67
2023/08/28 11:53:03;;;;;;;1.95;1.80;;;27.00;93.70;;;;;;5099444;28;20108;-67
2023/08/28 11:55:33;;;;;;;4.18;2.15;;;27.30;92.80;;;;;;5097982;28;20024;-67
2023/08/28 11:57:59;;;;;;;4.95;1.90;;;27.60;92.20;;;;;;5100021;28;20028;-67
2023/08/28 12:00:25;;;;;;;1.85;1.70;;;27.60;92.00;;;;;;5101622;28;20032;-67
2023/08/28 12:02:51;;;;;;;2.47;1.92;;;27.30;92.20;;;;;;5097731;28;20538;-62
2023/08/28 12:05:17;;;;;;;4.05;2.10;;;27.20;92.10;;;;;;5095250;28;20021;-62
2023/08/28 12:07:43;;;;;;;3.33;2.10;;;27.20;92.30;;;;;;5096241;28;20031;-62
2023/08/28 12:10:11;;;;;;;5.45;2.20;;;27.10;92.20;;;;;;5096320;28;20020;-62
2023/08/28 12:12:36;;;;;;;2.38;1.80;;;26.80;92.00;;;;;;5096659;28;20453;-63
2023/08/28 12:15:03;;;;;;;10.65;2.95;;;26.40;92.40;;;;;;5097304;28;20024;-62
2023/08/28 12:17:29;;;;;;;2.03;1.83;;;25.90;93.10;;;;;;5095323;28;20410;-63
2023/08/28 12:19:55;;;;;;;4.63;2.05;;;25.60;94.20;;;;;;5096029;28;20385;-66
2023/08/28 12:22:21;;;;;;;4.47;2.28;;;25.20;94.50;;;;;;5095921;28;20022;-60
2023/08/28 12:24:48;;;;;;;3.22;1.95;;;25.00;94.80;;;;;;5095388;28;20069;-60
2023/08/28 12:27:16;;;;;;;3.92;1.98;;;24.70;95.50;;;;;;5094402;28;20474;-60
2023/08/28 12:29:42;;;;;;;3.22;2.10;;;24.60;95.80;;;;;;5094202;28;20020;-60
2023/08/28 12:32:09;;;;;;;4.28;2.38;;;24.60;95.90;;;;;;5094520;28;20028;-62
2023/08/28 12:34:37;;;;;;;3.88;2.20;;;24.70;96.10;;;;;;5095193;28;20051;-62
2023/08/28 12:37:07;;;;;;;3.45;2.05;;;25.10;96.00;;;;;;5093676;28;20020;-61
2023/08/28 12:39:34;;;;;;;4.55;2.13;;;25.50;95.30;;;;;;5094957;28;20048;-61
2023/08/28 12:42:01;;;;;;;5.18;2.10;;;25.50;95.00;;;;;;5094215;28;20435;-61
2023/08/28 12:44:28;;;;;;;3.90;2.45;;;25.60;95.10;;;;;;5095216;28;20035;-62
2023/08/28 12:46:55;;;;;;;4.47;1.80;;;25.90;94.80;;;;;;5095094;28;20054;-61